Redondo, Valles Caldera, New Mexico Weather observations

Data are for 10 minute period ending at time listed.
 Day   Time   Solar   Ave.   Ave.  Ave.  Vector  Max.   Baro.   Total    
  of    of     Rad.   Air    Rel.  Wind   Wind   Wind  Press.  Precip.   
Year   Day            Temp.  Hum.  Speed  Dir.   Gust                    
2015   (MST)  Kw/m2    F      %     mph   deg.    mph    mb.     in.     
-------------------------------------------------------------------------
  89   19:30   0.00   38.3    41    2.4     0     6.6   693.0    0.00 
  89   19:40   0.00   38.2    41    3.8     0     9.0   693.1    0.00 
  89   19:50   0.00   38.0    41    2.2     0     4.2   693.2    0.00 
  89   20:00   0.00   38.0    40    2.6     0     6.6   693.2    0.00 
  89   20:10   0.00   38.3    40    2.8     0     8.4   693.3    0.00 
  89   20:20   0.00   37.8    41    1.7     0     3.6   693.4    0.00 
  89   20:30   0.00   37.3    42    1.8     0     4.8   693.3    0.00 
  89   20:40   0.00   37.1    43    1.7     0     4.2   693.4    0.00 
  89   20:50   0.00   36.8    43    1.5     0     4.8   693.4    0.00 
  89   21:00   0.00   36.6    44    1.5     0     5.4   693.3    0.00 
  89   21:10   0.00   36.3    45    1.5     0     4.2   693.3    0.00 
  89   21:20   0.00   35.5    46    1.4     0     3.6   693.1    0.00 
  89   21:30   0.00   34.8    48    1.4     0     2.4   693.1    0.00 
  89   21:40   0.00   34.5    48    1.3     0     2.4   693.1    0.00 
  89   21:50   0.00   34.5    47    0.6     0     2.4   693.1    0.00 
  89   22:00   0.00   34.2    49    0.6     0     1.8   693.1    0.00 
  89   22:10   0.00   34.4    47    0.8     0     3.0   693.0    0.00 
  89   22:20   0.00   35.2    44    1.3     0     3.0   693.0    0.00 
  89   22:30   0.00   34.8    44    0.9     0     2.4   693.0    0.00 
  89   22:40   0.00   35.1    42    1.1     0     2.4   693.0    0.00 
  89   22:50   0.00   35.3    41    1.4     0     3.6   693.0    0.00 
  89   23:00   0.00   37.2    35    2.4     0     3.6   692.9    0.00 
  89   23:10   0.00   37.6    35    1.8     0     2.4   692.9    0.00 
  89   23:20   0.00   36.5    38    1.4     0     3.0   692.9    0.00 
  89   23:30   0.00   35.1    40    0.6     0     2.4   692.9    0.00 
  89   23:40   0.00   34.9    39    1.6     0     3.6   692.7    0.00 
  89   23:50   0.00   36.2    37    0.9     0     2.4   692.7    0.00 
  90    0:00   0.00   34.7    41    0.3     0     1.8   692.7    0.00 
  90    0:10   0.00   33.3    44    0.9     0     2.4   692.7    0.00 
  90    0:20   0.00   32.7    46    1.2     0     2.4   692.6    0.00 
  90    0:30   0.00   34.2    39    1.8     0     3.0   692.5    0.00 
  90    0:40   0.00   35.8    36    1.6     0     2.4   692.6    0.00 
  90    0:50   0.00   35.9    34    1.3     0     3.0   692.6    0.00 
  90    1:00   0.00   37.1    31    2.1     0     3.6   692.6    0.00 
  90    1:10   0.00   37.9    30    2.3     0     4.2   692.6    0.00 
  90    1:20   0.00   37.4    31    2.5     0     6.0   692.6    0.00 
  90    1:30   0.00   37.7    30    2.3     0     4.8   692.5    0.00 
  90    1:40   0.00   38.0    30    2.7     0     5.4   692.4    0.00 
  90    1:50   0.00   38.4    29    2.5     0     5.4   692.4    0.00 
  90    2:00   0.00   38.3    29    2.2     0     4.8   692.4    0.00 
  90    2:10   0.00   38.0    29    2.1     0     3.6   692.3    0.00 
  90    2:20   0.00   37.5    30    2.2     0     3.6   692.2    0.00 
  90    2:30   0.00   36.8    31    2.3     0     5.4   692.1    0.00 
  90    2:40   0.00   36.2    32    2.0     0     3.6   692.0    0.00 
  90    2:50   0.00   36.2    32    1.6     0     3.0   692.0    0.00 
  90    3:00   0.00   36.2    32    1.5     0     3.6   692.0    0.00 
  90    3:10   0.00   36.3    32    2.0     0     3.6   692.0    0.00 
  90    3:20   0.00   36.4    32    1.7     0     3.0   691.9    0.00 
  90    3:30   0.00   35.7    32    1.2     0     3.6   691.9    0.00 
  90    3:40   0.00   36.6    31    2.0     0     4.2   691.9    0.00 
  90    3:50   0.00   36.8    31    2.0     0     3.6   691.9    0.00 
  90    4:00   0.00   36.9    31    2.3     0     4.8   691.7    0.00 
  90    4:10   0.00   37.1    32    2.6     0     4.2   691.7    0.00 
  90    4:20   0.00   37.4    31    2.5     0     4.2   691.7    0.00 
  90    4:30   0.00   37.2    32    2.5     0     4.8   691.7    0.00 
  90    4:40   0.00   35.2    37    1.3     0     2.4   691.7    0.00 
  90    4:50   0.00   33.7    38    1.1     0     2.4   691.7    0.00 
  90    5:00   0.00   33.4    40    0.9     0     2.4   691.7    0.00 
  90    5:10   0.00   33.3    39    0.8     0     2.4   691.7    0.00 
  90    5:20   0.00   32.8    40    1.0     0     2.4   691.7    0.00 
  90    5:30   0.00   33.5    39    1.4     0     3.0   691.7    0.00 
  90    5:40   0.00   34.1    38    2.2     0     4.8   691.8    0.00 
  90    5:50   0.00   36.3    33    2.6     0     6.0   691.8    0.00 
  90    6:00   0.00   37.0    33    2.4     0     4.2   691.9    0.00 
  90    6:10   0.01   36.3    34    2.7     0     4.8   691.9    0.00 
  90    6:20   0.01   36.6    34    2.2     0     3.0   692.0    0.00 
  90    6:30   0.01   36.5    34    1.7     0     3.0   692.1    0.00 
  90    6:40   0.02   35.5    37    1.1     0     3.6   692.1    0.00 
  90    6:50   0.05   37.1    34    2.2     0     4.8   692.1    0.00 
  90    7:00   0.09   38.9    34    1.1     0     2.4   692.2    0.00 
  90    7:10   0.18   40.0    32    1.7     0     4.2   692.2    0.00 
  90    7:20   0.25   42.7    28    2.3     0     4.8   692.3    0.00 
  90    7:30   0.28   46.1    25    2.1     0     5.4   692.3    0.00 
  90    7:40   0.32   48.5    24    2.2     0     4.8   692.3    0.00 
  90    7:50   0.37   49.3    23    2.5     0     4.8   692.3    0.00 
  90    8:00   0.40   50.8    22    3.0     0     5.4   692.5    0.00 
  90    8:10   0.44   51.7    21    3.2     0     5.4   692.5    0.00 
  90    8:20   0.48   51.7    21    3.0     0     5.4   692.5    0.00 
  90    8:30   0.51   51.0    22    3.3     0     4.8   692.5    0.00 
  90    8:40   0.55   53.9    20    2.7     0     5.4   692.6    0.00 
  90    8:50   0.58   54.4    20    3.3     0     6.0   692.7    0.00 
  90    9:00   0.61   51.9    21    3.1     0     6.0   692.7    0.00 
  90    9:10   0.64   53.4    19    1.5     0     4.2   692.7    0.00 
  90    9:20   0.67   52.1    20    3.7     0     7.2   692.6    0.00 
  90    9:30   0.70   50.7    22    3.9     0     6.6   692.6    0.00 
  90    9:40   0.73   50.3    22    3.9     0     7.8   692.6    0.00 
  90    9:50   0.76   51.1    21    3.5     0     7.8   692.5    0.00 
  90   10:00   0.80   51.0    21    4.2     0     9.6   692.5    0.00 
  90   10:10   0.82   51.3    21    4.2     0     9.6   692.4    0.00 
  90   10:20   0.86   52.1    21    3.4     0     7.8   692.4    0.00 
  90   10:30   0.89   52.8    20    4.4     0     7.8   692.3    0.00 
  90   10:40   0.91   56.9    18    4.2     0     8.4   692.1    0.00 
  90   10:50   0.56   51.7    20    3.6     0     6.6   692.1    0.00 
  90   11:00   0.28   48.8    23    3.6     0    10.2   692.0    0.00 
  90   11:10   0.66   50.5    22    3.8     0     6.6   692.0    0.00 
  90   11:20   0.39   52.6    20    3.6     0    10.2   692.0    0.00 
  90   11:30   0.16   47.6    25    3.0     0     5.4   692.0    0.00 
  90   11:40   0.17   46.2    25    2.6     0     5.4   691.9    0.00 
  90   11:50   0.42   47.5    23    1.3     0     3.6   691.8    0.00 
  90   12:00   0.39   50.3    20    2.2     0     4.2   691.7    0.00 
  90   12:10   0.30   50.5    21    2.8     0     5.4   691.7    0.00 
  90   12:20   0.20   49.2    22    2.3     0     4.8   691.7    0.00 
  90   12:30   0.21   48.3    20    1.3     0     4.8   691.6    0.00 
  90   12:40   0.24   46.7    28    3.9     0     8.4   691.4    0.00 
  90   12:50   0.25   45.9    31    4.2     0     9.0   691.2    0.00 
  90   13:00   0.23   45.6    34    3.5     0    10.2   691.1    0.00 
  90   13:10   0.23   44.4    36    4.9     0    10.8   691.0    0.00 
  90   13:20   0.26   45.0    34    3.4     0     6.6   690.9    0.00 
  90   13:30   0.20   44.8    34    3.6     0     6.6   690.8    0.00 
  90   13:40   0.19   44.7    34    3.8     0     7.8   690.6    0.00 
  90   13:50   0.24   45.1    32    3.3     0     7.2   690.5    0.00 
  90   14:00   0.64   47.5    30    3.9     0     7.8   690.4    0.00 
  90   14:10   0.30   49.9    26    3.5     0     9.0   690.4    0.00 
  90   14:20   0.35   48.0    27    3.4     0     7.2   690.3    0.00 
  90   14:30   0.77   50.1    25    3.9     0     9.6   690.1    0.00 
  90   14:40   0.78   54.1    22    3.8     0     9.0   689.9    0.00 
  90   14:50   0.78   55.4    21    2.7     0     6.6   689.8    0.00 
  90   15:00   0.41   55.2    21    3.7     0     8.4   689.7    0.00 
  90   15:10   0.18   48.5    27    3.2     0     9.0   689.5    0.00 
  90   15:20   0.12   46.7    29    2.9     0    10.8   689.5    0.00 
  90   15:30   0.11   45.7    30    3.8     0     6.6   689.5    0.00 
  90   15:40   0.17   45.5    30    3.8     0     8.4   689.5    0.00 
  90   15:50   0.19   46.0    30    3.7     0     6.6   689.5    0.00 
  90   16:00   0.18   45.5    31    3.4     0     7.8   689.5    0.00 
  90   16:10   0.23   45.4    32    4.3     0     9.6   689.5    0.00 
  90   16:20   0.14   44.4    35    5.0     0    10.2   689.5    0.00 
  90   16:30   0.14   43.5    36    4.2     0     7.8   689.5    0.00 
  90   16:40   0.26   44.2    35    4.5     0     8.4   689.6    0.00 
  90   16:50   0.23   45.4    32    2.8     0     5.4   689.6    0.00 
  90   17:00   0.26   46.9    30    1.8     0     4.8   689.6    0.00 
  90   17:10   0.25   47.8    28    1.9     0     5.4   689.5    0.00 
  90   17:20   0.24   50.4    26    2.0     0     6.0   689.4    0.00 
  90   17:30   0.23   52.3    23    2.8     0     4.8   689.3    0.00 
  90   17:40   0.09   48.8    26    1.9     0     5.4   689.2    0.00 
  90   17:50   0.12   48.1    26    2.0     0     3.6   689.2    0.00 
  90   18:00   0.04   46.3    28    2.2     0     4.8   689.1    0.00 
  90   18:10   0.01   43.5    30    2.5     0     5.4   689.1    0.00 
  90   18:20   0.01   42.0    31    1.9     0     3.6   689.1    0.00 
  90   18:30   0.01   40.7    32    1.3     0     3.0   689.1    0.00 
  90   18:40   0.00   40.1    33    1.6     0     4.2   689.2    0.00 
  90   18:50   0.00   40.1    34    2.5     0     4.8   689.2    0.00 
  90   19:00   0.00   40.1    34    3.9     0     7.2   689.2    0.00 
  90   19:10   0.00   40.3    34    3.4     0     7.2   689.2    0.00 
  90   19:20   0.00   39.6    36    2.9     0     5.4   689.2    0.00 

Return to Redondo, Valles Caldera graphs page.


Western Regional Climate Center,wrcc@dri.edu